createdAt,value
2023-01-23T00:04:34.751Z,14.35
2023-01-23T00:14:41.352Z,17.45
2023-01-23T00:19:46.243Z,16.35
2023-01-23T00:29:54.175Z,16.25
2023-01-23T00:34:58.884Z,18.65
2023-01-23T00:40:02.345Z,18.50
2023-01-23T00:45:07.979Z,20.90
2023-01-23T00:50:14.965Z,20.33
2023-01-23T00:55:21.321Z,22.40
2023-01-23T01:00:24.820Z,21.15
2023-01-23T01:05:29.740Z,21.88
2023-01-23T01:15:36.673Z,21.90
2023-01-23T01:20:42.288Z,21.23
2023-01-23T01:25:46.335Z,20.45
2023-01-23T01:30:49.887Z,20.13
2023-01-23T01:35:56.774Z,20.02
2023-01-23T01:41:00.212Z,20.48
2023-01-23T01:46:25.543Z,19.92
2023-01-23T01:51:33.216Z,20.40
2023-01-23T01:56:41.088Z,20.10
2023-01-23T02:01:48.417Z,18.83
2023-01-23T02:06:55.353Z,18.65
2023-01-23T02:11:58.660Z,19.15
2023-01-23T02:17:03.994Z,18.40
2023-01-23T02:22:20.143Z,19.50
2023-01-23T02:27:25.045Z,18.13
2023-01-23T02:37:36.341Z,19.05
2023-01-23T02:42:43.165Z,18.63
2023-01-23T02:47:46.456Z,18.92
2023-01-23T02:52:54.886Z,19.73
2023-01-23T02:58:20.157Z,20.83
2023-01-23T03:03:23.988Z,19.52
2023-01-23T03:08:36.241Z,20.15
2023-01-23T03:13:41.081Z,19.20
2023-01-23T03:23:58.038Z,19.88
2023-01-23T03:29:20.161Z,21.98
2023-01-23T03:34:24.040Z,20.13
2023-01-23T03:39:45.177Z,20.50
2023-01-23T03:44:50.198Z,20.55
2023-01-23T03:49:54.083Z,19.77
2023-01-23T03:54:57.512Z,18.97
2023-01-23T04:00:04.706Z,19.17
2023-01-23T04:05:09.284Z,19.27
2023-01-23T04:10:13.376Z,18.98
2023-01-23T04:15:18.385Z,18.45
2023-01-23T04:25:25.499Z,20.13
2023-01-23T04:30:30.667Z,18.20
2023-01-23T04:35:34.067Z,18.52
2023-01-23T04:40:39.087Z,18.58
2023-01-23T04:45:45.145Z,19.85
2023-01-23T04:50:48.861Z,19.02
2023-01-23T04:55:52.207Z,19.35
2023-01-23T05:01:03.741Z,17.27
2023-01-23T05:06:07.959Z,18.77
2023-01-23T05:11:11.296Z,18.63
2023-01-23T05:16:16.517Z,18.08
2023-01-23T05:21:20.071Z,19.10
2023-01-23T05:26:23.409Z,17.35
2023-01-23T05:31:31.374Z,18.90
2023-01-23T05:36:34.767Z,18.55
2023-01-23T05:41:38.271Z,17.20
2023-01-23T05:46:43.296Z,17.80
2023-01-23T05:51:46.650Z,19.27
2023-01-23T05:56:50.206Z,18.85
2023-01-23T06:01:55.214Z,19.55
2023-01-23T06:07:00.105Z,17.63
2023-01-23T06:17:08.877Z,18.63
2023-01-23T06:22:12.254Z,18.77
2023-01-23T06:27:15.694Z,17.20
2023-01-23T06:32:20.573Z,17.58
2023-01-23T06:42:28.694Z,17.42
2023-01-23T06:47:33.688Z,19.85
2023-01-23T06:52:38.990Z,18.45
2023-01-23T06:57:42.457Z,18.33
2023-01-23T07:02:47.238Z,18.10
2023-01-23T07:07:52.961Z,18.10
2023-01-23T07:12:56.534Z,16.35
2023-01-23T07:18:01.439Z,16.50
2023-01-23T07:23:06.147Z,17.02
2023-01-23T07:28:09.623Z,17.48
2023-01-23T07:33:15.317Z,16.98
2023-01-23T07:38:18.794Z,16.73
2023-01-23T07:43:22.249Z,16.67
2023-01-23T07:48:27.149Z,16.95
2023-01-23T07:58:33.617Z,19.02
2023-01-23T08:03:38.572Z,17.67
2023-01-23T08:08:42.405Z,16.83
2023-01-23T08:13:49.747Z,18.45
2023-01-23T08:18:54.593Z,18.40
2023-01-23T08:23:58.052Z,18.08
2023-01-23T08:29:01.771Z,18.02
2023-01-23T08:34:06.847Z,19.52
2023-01-23T08:39:10.345Z,15.07
2023-01-23T08:44:14.259Z,16.30
2023-01-23T08:49:20.421Z,14.23
2023-01-23T08:54:24.008Z,17.83
2023-01-23T08:59:27.481Z,16.08
2023-01-23T09:04:32.599Z,17.23
2023-01-23T09:09:35.995Z,17.17
2023-01-23T09:14:39.476Z,15.80
2023-01-23T09:19:44.299Z,16.15
2023-01-23T09:29:51.167Z,14.70
2023-01-23T09:34:56.094Z,15.48
2023-01-23T09:40:00.663Z,14.73
2023-01-23T09:45:08.231Z,13.75
2023-01-23T09:50:20.275Z,14.90
2023-01-23T09:55:31.264Z,14.63
2023-01-23T10:00:36.600Z,15.25
2023-01-23T10:05:48.314Z,12.88
2023-01-23T10:11:04.718Z,13.25
2023-01-23T10:16:24.139Z,13.75
2023-01-23T10:21:38.384Z,9.95
2023-01-23T10:26:44.952Z,12.15
2023-01-23T10:31:56.571Z,11.80
2023-01-23T10:37:12.714Z,11.68
2023-01-23T10:42:19.995Z,11.75
2023-01-23T10:47:37.116Z,13.45
2023-01-23T10:52:45.471Z,12.90
2023-01-23T10:57:50.723Z,12.63
2023-01-23T11:02:54.381Z,11.68
2023-01-23T11:07:59.288Z,12.18
2023-01-23T11:18:34.339Z,12.63
2023-01-23T11:23:39.355Z,11.75
2023-01-23T11:33:56.646Z,12.02
2023-01-23T11:39:08.244Z,11.75
2023-01-23T11:44:19.101Z,11.90
2023-01-23T11:55:18.911Z,12.50
2023-01-23T12:00:34.717Z,11.05
2023-01-23T12:06:19.292Z,11.50
2023-01-23T12:11:25.848Z,11.02
2023-01-23T12:16:38.849Z,10.57
2023-01-23T12:21:49.426Z,11.30
2023-01-23T12:27:01.864Z,10.50
2023-01-23T12:32:23.157Z,9.77
2023-01-23T12:37:48.384Z,9.40
2023-01-23T12:48:08.536Z,9.88
2023-01-23T12:53:14.711Z,9.73
2023-01-23T12:58:20.585Z,10.52
2023-01-23T13:03:46.246Z,10.75
2023-01-23T13:09:12.015Z,10.93
2023-01-23T13:14:32.848Z,11.25
2023-01-23T13:20:01.105Z,11.52
2023-01-23T13:25:14.671Z,13.87
2023-01-23T13:30:40.057Z,11.43
2023-01-23T13:35:56.264Z,11.95
2023-01-23T13:41:29.950Z,12.50
2023-01-23T14:20:23.828Z,13.82
2023-01-23T14:25:28.802Z,12.90
2023-01-23T14:30:32.225Z,14.48
2023-01-23T14:35:37.188Z,13.30
2023-01-23T14:46:02.178Z,14.10
2023-01-23T14:51:19.743Z,13.65
2023-01-23T14:56:28.295Z,14.82
2023-01-23T15:01:34.056Z,13.70
2023-01-23T15:06:40.406Z,14.13
2023-01-23T15:11:44.672Z,14.80
2023-01-23T15:16:48.218Z,14.23
2023-01-23T15:22:07.296Z,14.82
2023-01-23T15:27:25.752Z,14.27
2023-01-23T15:32:29.304Z,14.20
2023-01-23T15:37:34.858Z,14.63
2023-01-23T15:42:38.322Z,14.95
2023-01-23T15:47:41.764Z,14.35
2023-01-23T15:52:52.175Z,14.75
2023-01-23T15:57:56.949Z,14.80
2023-01-23T16:03:01.171Z,16.10
2023-01-23T16:08:14.355Z,14.18
2023-01-23T16:13:17.703Z,14.75
2023-01-23T16:18:21.143Z,13.95
2023-01-23T16:23:26.704Z,14.18
2023-01-23T16:28:32.695Z,14.48
2023-01-23T16:38:40.588Z,14.00
2023-01-23T16:43:43.980Z,13.70
2023-01-23T16:48:47.298Z,14.48
2023-01-23T16:53:55.612Z,13.73
2023-01-23T16:58:59.048Z,13.95
2023-01-23T17:04:04.533Z,14.52
2023-01-23T17:09:10.389Z,13.00
2023-01-23T17:14:17.728Z,13.60
2023-01-23T17:19:25.838Z,12.50
2023-01-23T17:24:30.797Z,12.88
2023-01-23T17:29:34.101Z,12.80
2023-01-23T17:34:49.359Z,12.68
2023-01-23T17:39:55.608Z,10.55
2023-01-23T17:44:58.985Z,12.50
2023-01-23T17:50:03.223Z,11.07
2023-01-23T18:00:19.138Z,12.55
2023-01-23T18:05:22.709Z,12.15
2023-01-23T18:10:30.071Z,11.73
2023-01-23T18:15:41.624Z,12.38
2023-01-23T18:20:45.685Z,12.65
2023-01-23T18:25:58.297Z,9.63
2023-01-23T18:31:09.583Z,8.98
2023-01-23T18:36:27.486Z,9.88
2023-01-23T18:41:32.553Z,9.90
2023-01-23T18:46:36.181Z,9.18
2023-01-23T18:51:47.305Z,9.80
2023-01-23T18:57:02.414Z,9.77
2023-01-23T19:02:22.549Z,10.15
2023-01-23T19:07:26.390Z,10.10
2023-01-23T19:12:37.461Z,9.90
2023-01-23T19:17:48.741Z,10.85
2023-01-23T19:23:01.107Z,9.77
2023-01-23T19:28:07.420Z,10.20
2023-01-23T19:33:15.761Z,11.25
2023-01-23T19:38:19.095Z,9.65
2023-01-23T19:43:24.107Z,9.57
2023-01-23T19:53:48.239Z,10.18
2023-01-23T19:58:53.015Z,10.02
2023-01-23T20:03:56.466Z,10.10
2023-01-23T20:08:59.907Z,10.07
2023-01-23T20:14:05.166Z,8.40
2023-01-23T20:19:09.185Z,10.00
2023-01-23T20:24:13.337Z,10.27
2023-01-23T20:29:18.192Z,8.90
2023-01-23T20:34:21.508Z,9.80
2023-01-23T20:39:24.874Z,9.75
2023-01-23T20:44:29.701Z,9.63
2023-01-23T20:49:33.104Z,9.93
2023-01-23T20:54:36.598Z,10.45
2023-01-23T20:59:41.515Z,9.45
2023-01-23T21:04:45.716Z,10.60
2023-01-23T21:09:49.437Z,9.97
2023-01-23T21:14:54.194Z,10.27
2023-01-23T21:19:57.746Z,9.45
2023-01-23T21:25:01.057Z,9.00
2023-01-23T21:30:07.081Z,9.57
2023-01-23T21:35:11.156Z,9.30
2023-01-23T21:40:15.418Z,8.43
2023-01-23T21:45:23.094Z,8.45
2023-01-23T21:50:26.831Z,9.00
2023-01-23T21:55:33.211Z,8.93
2023-01-23T22:00:55.174Z,8.18
2023-01-23T22:05:59.158Z,8.63
2023-01-23T22:11:02.599Z,8.27
2023-01-23T22:16:12.038Z,9.40
2023-01-23T22:21:15.421Z,8.63
2023-01-23T22:26:20.624Z,8.45
2023-01-23T22:31:25.462Z,8.55
2023-01-23T22:36:31.842Z,8.43
2023-01-23T22:41:35.899Z,8.07
2023-01-23T22:46:42.927Z,7.38
2023-01-23T22:51:46.290Z,7.20
2023-01-23T22:56:49.782Z,7.43
2023-01-23T23:01:54.492Z,7.85
2023-01-23T23:06:57.900Z,7.22
2023-01-23T23:12:01.225Z,7.40
2023-01-23T23:17:06.313Z,6.50
2023-01-23T23:22:09.674Z,7.10
2023-01-23T23:27:13.067Z,6.72
2023-01-23T23:32:17.841Z,6.78
2023-01-23T23:42:24.531Z,6.40
2023-01-23T23:47:29.577Z,6.57
2023-01-23T23:52:35.899Z,6.38
2023-01-23T23:57:41.254Z,6.60
